Time;durP1;ratioP1;P1;durP2;ratioP2;P2;SDS_P1;SDS_P2;PMS_P1;PMS_P2;Temp;Humidity;BMP_temperature;BMP_pressure;BME280_temperature;BME280_humidity;BME280_pressure;Samples;Min_cycle;Max_cycle;Signal;HPM_P1;HPM_P2
2021/12/18 00:04:10;;;;;;;47.15;23.48;;;;;;;3.87;100.00;100462.66;10291881;28;20142;-65
2021/12/18 00:09:13;;;;;;;55.65;24.48;;;;;;;3.84;100.00;100458.34;10293374;28;20089;-61
2021/12/18 00:14:16;;;;;;;42.65;23.20;;;;;;;3.88;100.00;100459.06;10270883;28;20087;-61
2021/12/18 00:19:25;;;;;;;45.35;23.15;;;;;;;3.91;100.00;100466.06;10289916;28;20046;-62
2021/12/18 00:24:54;;;;;;;48.60;23.58;;;;;;;3.95;100.00;100468.53;10291680;28;20054;-65
2021/12/18 00:29:58;;;;;;;47.22;22.65;;;;;;;3.93;100.00;100465.09;10273701;28;20117;-62
2021/12/18 00:35:03;;;;;;;40.80;22.40;;;;;;;3.95;100.00;100473.84;10289041;28;20484;-61
2021/12/18 00:40:11;;;;;;;43.30;22.20;;;;;;;3.95;100.00;100478.34;10288429;28;20567;-61
2021/12/18 00:45:16;;;;;;;47.13;23.00;;;;;;;3.90;100.00;100483.88;10286566;28;20053;-63
2021/12/18 00:50:22;;;;;;;44.03;22.23;;;;;;;3.92;100.00;100478.47;10285798;28;20057;-60
2021/12/18 00:55:25;;;;;;;45.78;22.95;;;;;;;3.93;100.00;100474.88;10285726;28;20049;-62
2021/12/18 01:00:28;;;;;;;45.90;23.73;;;;;;;3.90;100.00;100475.88;10284779;28;20053;-60
2021/12/18 01:05:34;;;;;;;43.65;21.45;;;;;;;3.85;100.00;100484.09;10289909;28;20134;-60
2021/12/18 01:10:53;;;;;;;40.67;20.45;;;;;;;3.80;100.00;100475.41;10279259;28;20117;-64
2021/12/18 01:16:04;;;;;;;46.72;22.20;;;;;;;3.82;100.00;100475.34;10283591;28;20046;-60
2021/12/18 01:26:30;;;;;;;48.70;22.48;;;;;;;3.79;100.00;100481.66;10281133;28;20069;-60
2021/12/18 01:31:33;;;;;;;49.80;23.27;;;;;;;3.78;100.00;100476.41;10283230;28;20142;-63
2021/12/18 01:36:37;;;;;;;56.30;22.25;;;;;;;3.76;100.00;100480.94;10283628;28;20122;-60
2021/12/18 01:41:57;;;;;;;48.25;22.23;;;;;;;3.72;100.00;100476.66;10266899;28;20056;-58
2021/12/18 01:51:12;;;;;;;51.47;23.05;;;;;;;3.69;100.00;100473.22;10274037;28;20137;-63
2021/12/18 01:52:32;;;;;;;53.97;21.75;;;;;;;3.66;100.00;100462.69;10286402;28;20072;-61
2021/12/18 01:57:36;;;;;;;48.45;21.73;;;;;;;3.67;100.00;100464.41;10299701;28;20047;-63
2021/12/18 02:02:39;;;;;;;52.22;22.58;;;;;;;3.67;100.00;100447.53;10302962;28;20114;-60
2021/12/18 02:07:43;;;;;;;56.85;23.08;;;;;;;3.66;100.00;100449.34;10283746;28;20058;-60
2021/12/18 02:12:55;;;;;;;59.05;23.02;;;;;;;3.66;100.00;100438.69;10283262;28;20046;-61
2021/12/18 02:23:19;;;;;;;55.47;22.40;;;;;;;3.69;100.00;100430.56;10285849;28;20419;-58
2021/12/18 02:28:25;;;;;;;56.85;24.05;;;;;;;3.73;100.00;100438.41;10285941;28;20042;-59
2021/12/18 02:33:28;;;;;;;53.88;23.75;;;;;;;3.73;100.00;100428.63;10287376;28;20518;-65
2021/12/18 02:38:57;;;;;;;53.80;22.40;;;;;;;3.75;100.00;100425.88;10284188;28;21455;-65
2021/12/18 02:44:01;;;;;;;52.38;22.15;;;;;;;3.76;100.00;100425.84;10288143;28;20121;-62
2021/12/18 02:49:07;;;;;;;50.28;21.15;;;;;;;3.77;100.00;100410.69;10267377;28;20059;-61
2021/12/18 02:54:11;;;;;;;46.50;20.70;;;;;;;3.75;100.00;100405.44;10279632;28;20157;-58
2021/12/18 02:59:16;;;;;;;52.55;20.83;;;;;;;3.75;100.00;100413.44;10283709;28;20118;-63
2021/12/18 03:04:26;;;;;;;49.72;20.48;;;;;;;3.75;100.00;100408.09;10288993;28;20061;-64
2021/12/18 03:25:36;;;;;;;42.33;18.60;;;;;;;3.79;100.00;100398.16;10261691;28;20508;-61
2021/12/18 03:30:39;;;;;;;50.15;20.63;;;;;;;3.77;100.00;100400.88;10297627;28;20047;-61
2021/12/18 03:35:42;;;;;;;42.88;19.15;;;;;;;3.79;100.00;100392.81;10304626;28;20051;-65
2021/12/18 03:40:46;;;;;;;45.38;18.73;;;;;;;3.79;100.00;100379.50;10291584;28;20598;-64
2021/12/18 03:45:49;;;;;;;45.75;19.23;;;;;;;3.79;100.00;100379.50;10293846;28;20078;-65
2021/12/18 03:50:53;;;;;;;54.97;20.08;;;;;;;3.82;100.00;100388.22;10285648;28;20090;-63
2021/12/18 03:55:57;;;;;;;48.28;20.73;;;;;;;3.83;100.00;100383.72;10299180;28;20137;-64
2021/12/18 04:01:00;;;;;;;52.42;20.95;;;;;;;3.85;100.00;100381.88;10283964;28;20257;-60
2021/12/18 04:06:04;;;;;;;47.35;21.15;;;;;;;3.86;100.00;100386.25;10289805;28;20050;-60
2021/12/18 04:11:08;;;;;;;57.50;22.38;;;;;;;3.85;100.00;100389.88;10287721;28;20149;-62
2021/12/18 04:16:11;;;;;;;49.63;23.23;;;;;;;3.87;100.00;100381.81;10275138;28;20121;-62
2021/12/18 04:21:15;;;;;;;53.15;22.80;;;;;;;3.85;100.00;100381.88;10287689;28;20418;-58
2021/12/18 04:26:19;;;;;;;49.40;22.63;;;;;;;3.86;100.00;100380.94;10292579;28;20047;-66
2021/12/18 04:31:22;;;;;;;54.25;23.70;;;;;;;3.88;100.00;100387.06;10271550;28;20533;-60
2021/12/18 04:36:25;;;;;;;51.85;22.88;;;;;;;3.89;100.00;100372.81;10268672;28;20055;-62
2021/12/18 04:41:38;;;;;;;64.25;23.30;;;;;;;3.88;100.00;100376.41;10289461;28;20126;-66
2021/12/18 04:46:41;;;;;;;58.10;24.67;;;;;;;3.88;100.00;100376.41;10286628;28;20046;-63
2021/12/18 04:51:47;;;;;;;53.75;23.45;;;;;;;3.85;100.00;100372.09;10284730;28;20053;-61
2021/12/18 04:56:52;;;;;;;59.58;24.63;;;;;;;3.87;100.00;100379.16;10288200;28;20125;-60
2021/12/18 05:01:55;;;;;;;63.40;23.70;;;;;;;3.87;100.00;100374.66;10300403;28;20046;-59
2021/12/18 05:06:58;;;;;;;55.53;23.25;;;;;;;3.84;100.00;100381.03;10301894;28;20133;-62
2021/12/18 05:12:04;;;;;;;53.88;24.00;;;;;;;3.88;100.00;100387.06;10297442;28;20106;-62
2021/12/18 05:17:07;;;;;;;52.00;23.23;;;;;;;3.89;100.00;100379.91;10280373;28;20042;-65
2021/12/18 05:22:10;;;;;;;57.17;23.85;;;;;;;3.90;100.00;100395.00;10284988;28;20126;-62
2021/12/18 05:27:15;;;;;;;55.55;23.27;;;;;;;3.91;100.00;100402.94;10287591;28;20166;-65
2021/12/18 05:32:18;;;;;;;61.92;24.25;;;;;;;3.90;100.00;100401.19;10274316;28;20092;-59
2021/12/18 05:37:43;;;;;;;57.80;23.63;;;;;;;3.90;100.00;100395.88;10287277;28;20122;-60
2021/12/18 05:42:47;;;;;;;57.40;24.10;;;;;;;3.89;100.00;100396.81;10287830;28;20562;-55
2021/12/18 05:47:50;;;;;;;61.22;24.65;;;;;;;3.90;100.00;100406.53;10287567;28;20050;-58
2021/12/18 05:52:54;;;;;;;60.28;24.20;;;;;;;3.87;100.00;100406.66;10284275;28;20109;-59
2021/12/18 05:57:59;;;;;;;54.60;23.27;;;;;;;3.91;100.00;100407.38;10284969;28;20046;-58
2021/12/18 06:03:02;;;;;;;56.25;23.13;;;;;;;3.91;100.00;100405.59;10287151;28;20047;-56
2021/12/18 06:08:10;;;;;;;59.55;24.50;;;;;;;3.95;100.00;100404.50;10289455;28;20062;-55
2021/12/18 06:13:15;;;;;;;53.08;24.10;;;;;;;3.95;100.00;100407.19;10267510;28;20074;-59
2021/12/18 06:18:18;;;;;;;57.85;22.98;;;;;;;3.98;100.00;100412.38;10283455;28;20050;-59
2021/12/18 06:23:22;;;;;;;60.33;23.77;;;;;;;3.98;100.00;100408.88;10291100;28;20047;-57
2021/12/18 06:28:26;;;;;;;55.42;23.42;;;;;;;3.99;100.00;100414.13;10279917;28;20073;-58
2021/12/18 06:33:31;;;;;;;62.63;24.10;;;;;;;4.00;100.00;100414.97;10306126;28;20043;-66
2021/12/18 06:38:36;;;;;;;54.80;23.75;;;;;;;3.97;100.00;100402.63;10301843;28;20117;-64
2021/12/18 06:43:41;;;;;;;61.60;24.08;;;;;;;3.97;100.00;100402.63;10301305;28;20054;-55
2021/12/18 06:48:44;;;;;;;55.33;24.73;;;;;;;3.95;100.00;100399.19;10298709;28;20050;-66
2021/12/18 06:53:48;;;;;;;67.88;25.08;;;;;;;3.96;100.00;100400.06;10295921;28;20117;-59
2021/12/18 06:58:53;;;;;;;63.97;26.38;;;;;;;3.95;100.00;100399.19;10294630;28;20130;-64
2021/12/18 07:03:56;;;;;;;62.05;24.90;;;;;;;3.90;100.00;100398.53;10285738;28;20053;-61
2021/12/18 07:09:00;;;;;;;72.45;27.25;;;;;;;3.91;100.00;100386.94;10298463;28;20041;-65
2021/12/18 07:14:05;;;;;;;63.17;26.25;;;;;;;3.89;100.00;100383.47;10302963;28;20145;-59
2021/12/18 07:19:13;;;;;;;72.75;27.77;;;;;;;3.90;100.00;100393.19;10315810;28;20133;-60
2021/12/18 07:24:16;;;;;;;66.93;27.02;;;;;;;3.91;100.00;100396.72;10340938;28;20050;-68
2021/12/18 07:29:46;;;;;;;79.40;27.45;;;;;;;3.90;100.00;100397.66;10341635;28;20050;-65
2021/12/18 07:34:50;;;;;;;68.63;26.48;;;;;;;3.90;100.00;100398.53;10329676;28;20411;-66
2021/12/18 07:39:55;;;;;;;67.00;25.40;;;;;;;3.90;100.00;100401.19;10294887;28;20392;-66
2021/12/18 07:45:00;;;;;;;72.72;24.05;;;;;;;3.90;100.00;100406.53;10285568;28;20046;-62
2021/12/18 07:50:08;;;;;;;62.90;25.08;;;;;;;3.94;100.00;100410.78;10287546;28;20051;-64
2021/12/18 07:55:12;;;;;;;68.22;25.73;;;;;;;3.93;100.00;100408.19;10270818;28;20053;-59
2021/12/18 08:00:17;;;;;;;65.55;25.00;;;;;;;3.94;100.00;100408.09;10272732;28;20038;-61
2021/12/18 08:05:20;;;;;;;72.65;25.95;;;;;;;3.96;100.00;100416.91;10294678;28;20069;-65
2021/12/18 08:10:23;;;;;;;66.70;26.08;;;;;;;3.94;100.00;100413.44;10303666;28;20069;-66
2021/12/18 08:15:28;;;;;;;58.08;23.65;;;;;;;3.87;100.00;100409.34;10312695;28;20071;-61
2021/12/18 08:20:31;;;;;;;58.83;22.52;;;;;;;3.87;100.00;100416.47;10309624;28;20068;-65
2021/12/18 08:25:35;;;;;;;51.55;22.20;;;;;;;3.88;100.00;100427.06;10273958;28;20145;-64
2021/12/18 08:30:41;;;;;;;51.95;23.63;;;;;;;3.90;100.00;100411.88;10291456;28;20514;-58
2021/12/18 08:35:44;;;;;;;52.13;22.23;;;;;;;3.90;100.00;100406.53;10294337;28;20231;-58
2021/12/18 08:40:50;;;;;;;49.10;20.23;;;;;;;3.85;100.00;100413.88;10269781;28;20202;-60
2021/12/18 08:45:55;;;;;;;45.33;20.50;;;;;;;3.89;100.00;100402.13;10273617;28;20054;-61
2021/12/18 08:50:59;;;;;;;51.47;21.08;;;;;;;3.90;100.00;100400.31;10286242;28;20129;-62
2021/12/18 08:56:02;;;;;;;46.40;19.85;;;;;;;3.94;100.00;100402.78;10293323;28;20042;-62
2021/12/18 09:01:06;;;;;;;36.35;17.75;;;;;;;3.95;100.00;100411.66;10282675;28;20678;-62
2021/12/18 09:06:09;;;;;;;36.25;18.63;;;;;;;3.98;100.00;100411.53;10320674;28;20042;-64
2021/12/18 09:11:12;;;;;;;32.20;17.20;;;;;;;4.03;100.00;100400.66;10321619;28;20133;-64
2021/12/18 09:16:17;;;;;;;31.52;15.65;;;;;;;4.09;100.00;100405.69;10317663;28;20053;-62
2021/12/18 09:21:21;;;;;;;28.42;14.65;;;;;;;4.08;100.00;100398.63;10316493;28;20038;-66
2021/12/18 09:26:24;;;;;;;28.40;14.15;;;;;;;4.13;100.00;100396.59;10300370;28;20054;-65
2021/12/18 09:31:30;;;;;;;31.35;14.98;;;;;;;4.11;100.00;100399.38;10317045;28;20086;-65
2021/12/18 09:36:34;;;;;;;28.58;14.90;;;;;;;4.10;100.00;100397.63;10314761;28;20046;-65
2021/12/18 09:41:42;;;;;;;31.42;14.13;;;;;;;4.07;100.00;100396.88;10319405;28;20061;-65
2021/12/18 09:46:49;;;;;;;26.33;12.35;;;;;;;4.11;100.00;100402.03;10303297;28;20050;-64
2021/12/18 09:51:53;;;;;;;21.35;10.93;;;;;;;4.11;100.00;100399.38;10314131;28;20056;-64
2021/12/18 09:56:57;;;;;;;21.40;10.20;;;;;;;4.15;100.00;100392.06;10300191;28;20449;-65
2021/12/18 10:02:01;;;;;;;19.05;9.68;;;;;;;4.19;100.00;100382.13;10317085;28;20042;-65
2021/12/18 10:07:16;;;;;;;17.67;10.25;;;;;;;4.23;100.00;100363.22;10309493;28;20046;-63
2021/12/18 10:12:24;;;;;;;18.25;9.25;;;;;;;4.25;100.00;100353.34;10314069;28;20073;-66
2021/12/18 10:17:33;;;;;;;19.55;9.02;;;;;;;4.31;100.00;100352.19;10317167;28;20131;-62
2021/12/18 10:22:37;;;;;;;12.30;6.22;;;;;;;4.39;100.00;100343.81;10314726;28;20038;-64
2021/12/18 10:27:44;;;;;;;12.75;6.75;;;;;;;4.44;100.00;100333.75;10311886;28;20335;-63
2021/12/18 10:33:02;;;;;;;13.65;6.03;;;;;;;4.50;100.00;100325.47;10314094;28;20047;-62
2021/12/18 10:38:07;;;;;;;8.90;5.20;;;;;;;4.51;100.00;100323.66;10312570;28;20137;-64
2021/12/18 10:43:10;;;;;;;12.07;5.57;;;;;;;4.55;100.00;100317.22;10317921;28;20064;-63
2021/12/18 10:48:16;;;;;;;8.15;5.15;;;;;;;4.57;100.00;100302.00;10325523;28;20065;-64
2021/12/18 10:53:22;;;;;;;9.93;5.38;;;;;;;4.57;100.00;100299.34;10323636;28;20046;-63
2021/12/18 10:58:30;;;;;;;9.95;5.20;;;;;;;4.65;100.00;100293.59;10325247;28;20540;-65
2021/12/18 11:03:37;;;;;;;9.98;5.53;;;;;;;4.66;100.00;100284.63;10309177;28;20511;-62
2021/12/18 11:09:04;;;;;;;9.20;4.95;;;;;;;4.66;100.00;100282.84;10321811;28;20053;-65
2021/12/18 11:14:10;;;;;;;9.95;5.05;;;;;;;4.71;100.00;100285.28;10320976;28;20046;-63
2021/12/18 11:19:16;;;;;;;8.95;4.80;;;;;;;4.70;100.00;100272.88;10323759;28;20041;-64
2021/12/18 11:24:22;;;;;;;10.70;5.50;;;;;;;4.72;100.00;100265.66;10306137;28;20129;-61
2021/12/18 11:29:30;;;;;;;10.88;5.57;;;;;;;4.77;100.00;100247.56;10318725;28;20039;-64
2021/12/18 11:34:36;;;;;;;9.00;4.60;;;;;;;4.80;100.00;100241.22;10324019;28;20070;-64
2021/12/18 11:39:40;;;;;;;7.78;4.55;;;;;;;4.81;100.00;100237.63;10323533;28;20041;-60
2021/12/18 11:44:52;;;;;;;10.57;4.75;;;;;;;4.78;100.00;100227.94;10309156;28;20046;-64
2021/12/18 11:49:59;;;;;;;10.95;5.22;;;;;;;4.79;100.00;100229.66;10323538;28;20894;-61
2021/12/18 11:55:09;;;;;;;10.82;5.50;;;;;;;4.81;100.00;100221.59;10321489;28;20751;-58
2021/12/18 12:00:43;;;;;;;11.88;5.70;;;;;;;4.79;100.00;100219.00;10321962;28;20056;-60
2021/12/18 12:05:48;;;;;;;11.90;5.95;;;;;;;4.80;100.00;100218.06;10311798;28;20070;-57
2021/12/18 12:11:23;;;;;;;13.43;6.38;;;;;;;4.84;100.00;100210.75;10332381;28;20121;-63
2021/12/18 12:17:05;;;;;;;16.77;7.15;;;;;;;4.82;100.00;100208.16;10289420;28;20053;-62
2021/12/18 12:22:30;;;;;;;17.05;7.70;;;;;;;4.82;100.00;100205.50;10322011;28;20053;-59
2021/12/18 12:27:35;;;;;;;20.83;8.50;;;;;;;4.80;100.00;100204.69;10324549;28;20509;-58
2021/12/18 12:32:39;;;;;;;18.52;7.75;;;;;;;4.82;100.00;100205.50;10305119;28;20050;-62
2021/12/18 12:37:46;;;;;;;15.70;7.20;;;;;;;4.80;100.00;100198.50;10326025;28;20046;-60
2021/12/18 12:43:11;;;;;;;13.75;7.05;;;;;;;4.84;100.00;100195.59;10325359;28;20097;-61
2021/12/18 12:48:17;;;;;;;11.75;5.97;;;;;;;4.82;100.00;100193.94;10319063;28;20081;-59
2021/12/18 12:53:22;;;;;;;12.43;6.55;;;;;;;4.83;100.00;100191.19;10323490;28;20089;-57
2021/12/18 12:58:26;;;;;;;16.38;6.80;;;;;;;4.86;100.00;100191.03;10321073;28;20121;-63
2021/12/18 13:03:36;;;;;;;12.65;6.28;;;;;;;4.87;100.00;100189.22;10326000;28;20118;-59
2021/12/18 13:08:44;;;;;;;17.30;6.80;;;;;;;4.90;100.00;100189.91;10324178;28;20526;-58
2021/12/18 13:13:48;;;;;;;19.05;7.32;;;;;;;4.91;100.00;100185.44;10324783;28;20129;-61
2021/12/18 13:18:53;;;;;;;13.43;6.57;;;;;;;4.89;100.00;100188.19;10298587;28;20046;-63
2021/12/18 13:24:00;;;;;;;13.52;6.43;;;;;;;4.86;100.00;100172.34;10322270;28;20054;-61
2021/12/18 13:29:07;;;;;;;9.68;4.63;;;;;;;4.88;100.00;100166.91;10316662;28;20327;-61
2021/12/18 13:34:13;;;;;;;9.45;5.07;;;;;;;4.90;100.00;100173.88;10316462;28;20053;-57
2021/12/18 13:39:19;;;;;;;12.18;5.78;;;;;;;4.93;100.00;100164.88;10317504;28;20047;-64
2021/12/18 13:44:22;;;;;;;9.88;5.60;;;;;;;4.90;100.00;100168.53;10320191;28;20122;-64
2021/12/18 13:49:30;;;;;;;14.90;6.57;;;;;;;4.92;100.00;100150.63;10305013;28;20057;-64
2021/12/18 13:54:36;;;;;;;14.77;6.90;;;;;;;4.93;100.00;100156.84;10318294;28;20073;-60
2021/12/18 13:59:39;;;;;;;15.32;7.40;;;;;;;4.95;100.00;100154.94;10322337;28;20053;-63
2021/12/18 14:04:43;;;;;;;16.98;8.75;;;;;;;4.94;100.00;100151.41;10320114;28;20042;-58
2021/12/18 14:09:49;;;;;;;16.63;8.52;;;;;;;4.96;100.00;100147.81;10316779;28;20113;-60
2021/12/18 14:14:53;;;;;;;22.77;10.20;;;;;;;4.99;100.00;100147.66;10300289;28;20406;-64
2021/12/18 14:20:05;;;;;;;23.17;10.88;;;;;;;5.01;100.00;100137.72;10318266;28;20050;-65
2021/12/18 14:25:17;;;;;;;25.90;11.85;;;;;;;4.99;100.00;100135.13;10314687;28;20104;-61
2021/12/18 14:30:22;;;;;;;29.75;13.05;;;;;;;4.99;100.00;100143.16;10315721;28;20169;-63
2021/12/18 14:35:25;;;;;;;32.42;14.65;;;;;;;5.02;100.00;100139.44;10297549;28;20657;-59
2021/12/18 14:40:32;;;;;;;31.92;14.43;;;;;;;5.04;100.00;100126.88;10310444;28;20687;-61
2021/12/18 14:45:36;;;;;;;36.83;15.27;;;;;;;5.04;100.00;100121.53;10317817;28;20403;-62
2021/12/18 14:50:41;;;;;;;38.55;16.92;;;;;;;5.04;100.00;100121.53;10319735;28;20303;-58
2021/12/18 14:55:51;;;;;;;40.25;18.02;;;;;;;5.05;100.00;100121.47;10299806;28;20459;-58
2021/12/18 15:00:57;;;;;;;40.08;18.35;;;;;;;5.06;100.00;100115.16;10315930;28;20035;-60
2021/12/18 15:06:07;;;;;;;38.17;18.70;;;;;;;5.08;100.00;100107.91;10317811;28;20133;-67
2021/12/18 15:11:16;;;;;;;35.55;18.17;;;;;;;5.10;100.00;100102.50;10317381;28;20136;-59
2021/12/18 15:16:29;;;;;;;34.63;18.30;;;;;;;5.14;100.00;100108.53;10316160;28;20844;-60
2021/12/18 15:21:35;;;;;;;39.13;18.75;;;;;;;5.15;100.00;100104.91;10316809;28;20065;-58
2021/12/18 15:26:49;;;;;;;35.53;17.90;;;;;;;5.18;100.00;100096.72;10284793;28;20050;-60
2021/12/18 15:31:55;;;;;;;32.92;17.55;;;;;;;5.21;100.00;100096.56;10326597;28;20417;-64
2021/12/18 15:36:59;;;;;;;26.05;16.17;;;;;;;5.23;100.00;100086.63;10317115;28;20054;-62
2021/12/18 15:42:05;;;;;;;26.98;15.90;;;;;;;5.27;100.00;100087.31;10312568;28;20039;-59
2021/12/18 15:47:10;;;;;;;24.80;16.25;;;;;;;5.29;100.00;100082.75;10315631;28;20054;-59
2021/12/18 15:52:14;;;;;;;28.25;15.95;;;;;;;5.32;100.00;100077.25;10319960;28;20053;-58
2021/12/18 15:57:19;;;;;;;23.75;15.75;;;;;;;5.33;100.00;100078.97;10323845;28;20041;-62
2021/12/18 16:02:23;;;;;;;24.65;15.73;;;;;;;5.36;100.00;100070.75;10317839;28;20414;-60
2021/12/18 16:07:26;;;;;;;23.48;15.18;;;;;;;5.38;100.00;100074.22;10320174;28;20124;-59
2021/12/18 16:12:30;;;;;;;24.50;15.05;;;;;;;5.38;100.00;100061.72;10318510;28;20038;-63
2021/12/18 16:17:33;;;;;;;25.70;15.90;;;;;;;5.42;100.00;100061.53;10322636;28;20125;-60
2021/12/18 16:22:36;;;;;;;21.15;14.70;;;;;;;5.43;100.00;100057.91;10326244;28;20049;-60
2021/12/18 16:27:41;;;;;;;18.08;13.02;;;;;;;5.46;100.00;100057.75;10325658;28;20125;-63
2021/12/18 16:32:45;;;;;;;15.68;12.13;;;;;;;5.48;100.00;100063.88;10313343;28;20039;-62
2021/12/18 16:38:05;;;;;;;17.45;12.07;;;;;;;5.51;100.00;100061.88;10326417;28;20462;-60
2021/12/18 16:43:10;;;;;;;17.25;11.80;;;;;;;5.51;100.00;100055.69;10322993;28;20038;-62
2021/12/18 16:48:18;;;;;;;15.40;10.93;;;;;;;5.54;100.00;100055.47;10306688;28;20048;-62
2021/12/18 16:53:22;;;;;;;14.43;10.50;;;;;;;5.55;100.00;100052.75;10320699;28;20050;-61
2021/12/18 16:58:27;;;;;;;16.15;11.55;;;;;;;5.55;100.00;100055.41;10258791;28;20108;-60
2021/12/18 17:03:35;;;;;;;15.93;11.93;;;;;;;5.58;100.00;100045.50;10301821;28;20043;-61
2021/12/18 17:08:39;;;;;;;16.13;11.65;;;;;;;5.57;100.00;100049.13;10306551;28;20042;-60
2021/12/18 17:13:44;;;;;;;17.17;12.63;;;;;;;5.56;100.00;100061.59;10304011;28;20038;-56
2021/12/18 17:18:48;;;;;;;21.73;14.35;;;;;;;5.56;100.00;100064.28;10336045;28;20047;-60
2021/12/18 17:23:51;;;;;;;25.65;16.23;;;;;;;5.56;100.00;100061.59;10324363;28;20106;-62
2021/12/18 17:28:56;;;;;;;32.33;17.70;;;;;;;5.55;100.00;100050.06;10323090;28;20051;-62
2021/12/18 17:34:06;;;;;;;38.77;19.47;;;;;;;5.51;100.00;100043.16;10316625;28;20066;-60
2021/12/18 17:39:09;;;;;;;37.28;20.40;;;;;;;5.51;100.00;100055.69;10305863;28;20046;-62
2021/12/18 17:44:14;;;;;;;49.42;23.17;;;;;;;5.52;100.00;100044.03;10303440;28;20050;-62
2021/12/18 17:49:17;;;;;;;39.88;21.65;;;;;;;5.51;100.00;100048.50;10308321;28;20136;-62
2021/12/18 17:54:20;;;;;;;45.47;23.42;;;;;;;5.51;100.00;100045.84;10303691;28;20070;-60
2021/12/18 17:59:28;;;;;;;49.50;24.45;;;;;;;5.52;100.00;100041.38;10303784;28;20550;-56
2021/12/18 18:04:32;;;;;;;51.45;23.98;;;;;;;5.53;100.00;100043.06;10303905;28;20283;-58
2021/12/18 18:09:38;;;;;;;53.33;24.20;;;;;;;5.52;100.00;100031.53;10309702;28;20393;-58
2021/12/18 18:14:45;;;;;;;51.50;24.05;;;;;;;5.51;100.00;100023.59;10303908;28;20054;-59
2021/12/18 18:19:47;;;;;;;57.53;26.80;;;;;;;5.49;100.00;100015.66;10307902;28;20414;-60
2021/12/18 18:24:51;;;;;;;59.13;26.45;;;;;;;5.50;100.00;100016.53;10303429;28;20042;-63
2021/12/18 18:29:56;;;;;;;49.97;26.33;;;;;;;5.49;100.00;100015.66;10304239;28;20129;-60
2021/12/18 18:34:59;;;;;;;43.20;24.40;;;;;;;5.50;100.00;100022.72;10308620;28;20471;-59
2021/12/18 18:40:07;;;;;;;36.13;21.05;;;;;;;5.51;100.00;100021.78;10305677;28;20129;-60
2021/12/18 18:45:16;;;;;;;29.75;20.00;;;;;;;5.49;100.00;100021.00;10302137;28;20035;-61
2021/12/18 18:50:19;;;;;;;28.20;19.00;;;;;;;5.52;100.00;100028.84;10306201;28;20055;-60
2021/12/18 18:55:22;;;;;;;23.33;17.00;;;;;;;5.47;100.00;100032.75;10299800;28;20045;-62
2021/12/18 19:00:28;;;;;;;20.65;14.60;;;;;;;5.43;100.00;100024.03;10302173;28;20053;-62
2021/12/18 19:05:32;;;;;;;18.85;12.70;;;;;;;5.37;100.00;100017.25;10307981;28;20042;-62
2021/12/18 19:10:35;;;;;;;14.23;10.70;;;;;;;5.35;100.00;100023.63;10307486;28;20074;-61
2021/12/18 19:15:44;;;;;;;10.55;8.35;;;;;;;5.28;100.00;100011.56;10310041;28;20138;-61
2021/12/18 19:20:51;;;;;;;9.52;6.15;;;;;;;5.23;100.00;100003.81;10312457;28;20047;-62
2021/12/18 19:25:54;;;;;;;7.40;6.20;;;;;;;5.21;100.00;99998.56;10309922;28;20487;-61
2021/12/18 19:30:58;;;;;;;6.07;4.65;;;;;;;5.18;100.00;100006.75;10311861;28;20395;-62
2021/12/18 19:36:03;;;;;;;5.00;4.50;;;;;;;5.15;100.00;99992.69;10314061;28;20053;-62
2021/12/18 19:41:07;;;;;;;4.60;4.10;;;;;;;5.14;100.00;99988.31;10312059;28;20050;-62
2021/12/18 19:46:12;;;;;;;4.60;3.90;;;;;;;5.11;100.00;99976.00;10308543;28;20054;-62
2021/12/18 19:51:18;;;;;;;3.10;2.80;;;;;;;5.06;100.00;99967.38;10305887;28;20065;-62
2021/12/18 19:56:21;;;;;;;4.78;3.35;;;;;;;5.06;100.00;99962.03;10311779;28;20050;-62
2021/12/18 20:01:26;;;;;;;4.00;3.53;;;;;;;5.03;100.00;99959.53;10300781;28;20427;-61
2021/12/18 20:06:29;;;;;;;4.13;3.72;;;;;;;5.01;100.00;99953.41;10309692;28;20410;-61
2021/12/18 20:11:32;;;;;;;3.50;3.20;;;;;;;4.94;100.00;99950.22;10312712;28;20149;-61
2021/12/18 20:16:38;;;;;;;3.55;3.25;;;;;;;4.93;100.00;99937.84;10311144;28;20097;-62
2021/12/18 20:21:41;;;;;;;3.30;3.00;;;;;;;4.89;100.00;99946.97;10311481;28;20401;-61
2021/12/18 20:26:44;;;;;;;4.05;3.53;;;;;;;4.86;100.00;99921.31;10316702;28;20034;-61
2021/12/18 20:31:50;;;;;;;2.63;2.42;;;;;;;4.83;100.00;99917.91;10313183;28;20049;-62
2021/12/18 20:36:54;;;;;;;2.97;2.67;;;;;;;4.85;100.00;99922.25;10309788;28;20046;-62
2021/12/18 20:42:00;;;;;;;3.45;3.10;;;;;;;4.82;100.00;99914.41;10310472;28;20454;-62
2021/12/18 20:47:07;;;;;;;3.92;3.00;;;;;;;4.84;100.00;99909.84;10308491;28;20547;-62
2021/12/18 20:52:10;;;;;;;4.68;3.22;;;;;;;4.82;100.00;99903.72;10308530;28;20061;-62
2021/12/18 20:57:13;;;;;;;4.53;3.30;;;;;;;4.83;100.00;99900.09;10312225;28;20038;-62
2021/12/18 21:02:18;;;;;;;3.50;3.20;;;;;;;4.92;100.00;99909.41;10310977;28;20541;-60
2021/12/18 21:07:23;;;;;;;3.88;2.95;;;;;;;4.93;100.00;99903.97;10311157;28;20093;-61
2021/12/18 21:12:26;;;;;;;5.93;2.90;;;;;;;5.04;100.00;99897.13;10302781;28;20047;-62
2021/12/18 21:17:50;;;;;;;4.10;2.85;;;;;;;5.02;100.00;99902.56;10311144;28;20070;-61
2021/12/18 21:22:53;;;;;;;3.20;2.75;;;;;;;5.07;100.00;99889.78;10306054;28;20042;-64
2021/12/18 21:27:57;;;;;;;4.30;2.83;;;;;;;5.07;100.00;99880.94;10310453;28;20122;-63
2021/12/18 21:33:01;;;;;;;4.47;3.10;;;;;;;5.07;100.00;99884.44;10301859;28;20042;-63
2021/12/18 21:38:07;;;;;;;5.75;3.55;;;;;;;5.08;100.00;99882.66;10311053;28;20066;-64
2021/12/18 21:43:10;;;;;;;6.88;3.80;;;;;;;5.10;100.00;99880.75;10305684;28;20472;-62
2021/12/18 21:48:15;;;;;;;4.65;3.13;;;;;;;5.11;100.00;99874.47;10307379;28;20038;-63
2021/12/18 21:53:19;;;;;;;5.65;3.65;;;;;;;5.09;100.00;99865.69;10308273;28;20114;-64
2021/12/18 21:58:23;;;;;;;6.93;3.88;;;;;;;5.12;100.00;99868.16;10307147;28;20054;-65
2021/12/18 22:03:28;;;;;;;7.45;4.22;;;;;;;5.17;100.00;99859.88;10309353;28;20081;-64
2021/12/18 22:08:31;;;;;;;8.82;4.13;;;;;;;5.15;100.00;99862.63;10309630;28;20046;-63
2021/12/18 22:13:38;;;;;;;6.70;3.85;;;;;;;5.17;100.00;99854.53;10303301;28;20443;-64
2021/12/18 22:18:43;;;;;;;7.05;4.80;;;;;;;5.19;100.00;99849.94;10308689;28;20391;-64
2021/12/18 22:23:47;;;;;;;7.30;4.50;;;;;;;5.18;100.00;99835.72;10307350;28;20057;-62
2021/12/18 22:28:50;;;;;;;7.10;4.85;;;;;;;5.17;100.00;99834.00;10307789;28;20042;-62
2021/12/18 22:33:55;;;;;;;8.77;4.75;;;;;;;5.16;100.00;99826.94;10301688;28;20066;-59
2021/12/18 22:38:58;;;;;;;8.45;5.05;;;;;;;5.25;100.00;99814.84;10313077;28;20058;-59
2021/12/18 22:44:03;;;;;;;9.93;5.90;;;;;;;5.24;100.00;99818.47;10310370;28;20113;-59
2021/12/18 22:49:14;;;;;;;8.02;5.20;;;;;;;5.28;100.00;99809.31;10318665;28;20106;-59
2021/12/18 22:54:17;;;;;;;9.52;5.43;;;;;;;5.27;100.00;99796.03;10315110;28;20042;-58
2021/12/18 22:59:20;;;;;;;11.35;5.00;;;;;;;5.27;100.00;99796.03;10312381;28;20072;-62
2021/12/18 23:04:24;;;;;;;9.75;4.88;;;;;;;5.34;100.00;99787.56;10306284;28;20137;-60
2021/12/18 23:09:28;;;;;;;10.00;5.32;;;;;;;5.33;100.00;99779.66;10318952;28;20051;-57
2021/12/18 23:14:48;;;;;;;7.97;5.18;;;;;;;5.32;100.00;99777.94;10307921;28;20072;-57
2021/12/18 23:20:07;;;;;;;11.07;5.65;;;;;;;5.34;100.00;99765.34;10313664;28;20043;-57
2021/12/18 23:25:11;;;;;;;11.38;5.68;;;;;;;5.34;100.00;99765.34;10310400;28;20031;-55
2021/12/18 23:30:16;;;;;;;9.45;5.68;;;;;;;5.33;100.00;99758.28;10316678;28;20058;-63
2021/12/18 23:35:21;;;;;;;10.90;5.63;;;;;;;5.33;100.00;99751.09;10346196;28;20050;-59